createdAt,value
2022-10-11T00:01:03.667Z,8.78
2022-10-11T00:03:36.686Z,8.80
2022-10-11T00:06:06.575Z,8.81
2022-10-11T00:08:35.559Z,8.82
2022-10-11T00:11:07.546Z,8.84
2022-10-11T00:13:35.710Z,8.87
2022-10-11T00:16:11.277Z,8.88
2022-10-11T00:18:39.897Z,8.90
2022-10-11T00:21:11.789Z,8.90
2022-10-11T00:23:40.779Z,8.91
2022-10-11T00:26:10.942Z,8.90
2022-10-11T00:28:39.105Z,8.89
2022-10-11T00:31:10.221Z,8.93
2022-10-11T00:33:38.212Z,8.95
2022-10-11T00:36:08.591Z,8.96
2022-10-11T00:38:37.265Z,8.99
2022-10-11T00:41:05.415Z,9.00
2022-10-11T00:43:33.919Z,9.00
2022-10-11T00:46:08.299Z,9.00
2022-10-11T00:48:46.308Z,9.00
2022-10-11T00:51:20.222Z,9.00
2022-10-11T00:53:50.804Z,9.03
2022-10-11T00:56:26.611Z,9.04
2022-10-11T00:58:56.253Z,9.06
2022-10-11T01:01:24.715Z,9.07
2022-10-11T01:03:53.104Z,9.08
2022-10-11T01:06:21.453Z,9.09
2022-10-11T01:08:51.638Z,9.07
2022-10-11T01:11:23.541Z,9.05
2022-10-11T01:14:25.701Z,9.04
2022-10-11T01:17:02.635Z,9.04
2022-10-11T01:19:52.647Z,9.06
2022-10-11T01:22:38.677Z,9.06
2022-10-11T01:25:06.996Z,9.07
2022-10-11T01:27:44.064Z,9.09
2022-10-11T01:30:24.067Z,9.11
2022-10-11T01:33:04.802Z,9.09
2022-10-11T01:35:56.553Z,9.06
2022-10-11T01:38:40.467Z,9.03
2022-10-11T01:41:15.559Z,9.02
2022-10-11T01:43:45.462Z,8.99
2022-10-11T01:46:14.796Z,8.99
2022-10-11T01:48:49.743Z,8.99
2022-10-11T01:51:22.750Z,8.99
2022-10-11T01:54:15.470Z,8.99
2022-10-11T01:57:10.846Z,9.00
2022-10-11T01:59:57.504Z,9.01
2022-10-11T02:03:11.590Z,9.02
2022-10-11T02:05:51.904Z,9.02
2022-10-11T02:08:33.582Z,9.04
2022-10-11T02:11:10.470Z,9.06
2022-10-11T02:13:53.053Z,9.08
2022-10-11T02:16:26.985Z,9.10
2022-10-11T02:18:56.915Z,9.12
2022-10-11T02:21:25.838Z,9.14
2022-10-11T02:24:08.392Z,9.15
2022-10-11T02:26:39.379Z,9.16
2022-10-11T02:29:10.303Z,9.18
2022-10-11T02:31:40.213Z,9.19
2022-10-11T02:34:11.211Z,9.21
2022-10-11T02:37:05.391Z,9.23
2022-10-11T02:40:00.917Z,9.25
2022-10-11T02:42:37.386Z,9.26
2022-10-11T02:45:16.963Z,9.27
2022-10-11T02:47:45.864Z,9.29
2022-10-11T02:50:14.908Z,9.29
2022-10-11T02:52:43.315Z,9.29
2022-10-11T02:55:11.903Z,9.31
2022-10-11T02:57:40.002Z,9.32
2022-10-11T03:00:09.148Z,9.34
2022-10-11T03:02:37.918Z,9.35
2022-10-11T03:05:06.004Z,9.37
2022-10-11T03:07:34.507Z,9.38
2022-10-11T03:10:02.905Z,9.38
2022-10-11T03:12:30.898Z,9.35
2022-10-11T03:14:59.148Z,9.33
2022-10-11T03:17:37.636Z,9.31
2022-10-11T03:20:07.032Z,9.29
2022-10-11T03:22:35.506Z,9.28
2022-10-11T03:25:04.782Z,9.25
2022-10-11T03:27:33.963Z,9.24
2022-10-11T03:30:02.007Z,9.23
2022-10-11T03:32:30.060Z,9.22
2022-10-11T03:34:58.390Z,9.20
2022-10-11T03:37:26.971Z,9.18
2022-10-11T03:39:54.931Z,9.15
2022-10-11T03:42:22.951Z,9.10
2022-10-11T03:44:52.075Z,9.07
2022-10-11T03:47:20.171Z,9.04
2022-10-11T03:49:48.316Z,8.99
2022-10-11T03:52:16.347Z,8.95
2022-10-11T03:54:44.309Z,8.95
2022-10-11T03:57:12.548Z,8.93
2022-10-11T03:59:40.553Z,8.89
2022-10-11T04:02:08.820Z,8.81
2022-10-11T04:04:37.500Z,8.74
2022-10-11T04:07:05.654Z,8.67
2022-10-11T04:09:33.952Z,8.61
2022-10-11T04:12:01.919Z,8.56
2022-10-11T04:14:29.934Z,8.52
2022-10-11T04:17:00.346Z,8.47
2022-10-11T04:19:29.017Z,8.44
2022-10-11T04:21:57.047Z,8.42
2022-10-11T04:24:25.041Z,8.42
2022-10-11T04:26:53.234Z,8.40
2022-10-11T04:29:21.661Z,8.36
2022-10-11T04:31:49.973Z,8.33
2022-10-11T04:34:18.620Z,8.28
2022-10-11T04:36:49.909Z,8.19
2022-10-11T04:39:18.138Z,8.12
2022-10-11T04:41:46.268Z,8.07
2022-10-11T04:44:14.379Z,8.02
2022-10-11T04:46:42.346Z,7.97
2022-10-11T04:49:10.426Z,7.94
2022-10-11T04:51:38.545Z,7.90
2022-10-11T04:54:06.534Z,7.89
2022-10-11T04:56:34.504Z,7.87
2022-10-11T04:59:02.963Z,7.86
2022-10-11T05:01:31.007Z,7.86
2022-10-11T05:03:59.193Z,7.88
2022-10-11T05:06:27.383Z,7.89
2022-10-11T05:08:55.418Z,7.90
2022-10-11T05:11:23.611Z,7.90
2022-10-11T05:13:51.739Z,7.92
2022-10-11T05:16:19.767Z,7.93
2022-10-11T05:18:47.976Z,7.94
2022-10-11T05:21:27.611Z,7.93
2022-10-11T05:23:57.053Z,7.93
2022-10-11T05:26:27.805Z,7.94
2022-10-11T05:28:55.906Z,7.94
2022-10-11T05:31:24.528Z,7.96
2022-10-11T05:33:52.609Z,7.98
2022-10-11T05:36:21.190Z,8.00
2022-10-11T05:38:49.198Z,8.01
2022-10-11T05:41:17.839Z,8.03
2022-10-11T05:43:46.018Z,8.05
2022-10-11T05:46:14.184Z,8.10
2022-10-11T05:48:42.260Z,8.17
2022-10-11T05:51:12.011Z,8.30
2022-10-11T05:53:40.213Z,8.49
2022-10-11T05:56:20.272Z,8.70
2022-10-11T05:58:48.828Z,8.94
2022-10-11T06:01:27.471Z,9.13
2022-10-11T06:03:56.100Z,9.31
2022-10-11T06:06:24.172Z,9.51
2022-10-11T06:08:52.198Z,9.71
2022-10-11T06:11:25.269Z,9.89
2022-10-11T06:13:55.677Z,10.05
2022-10-11T06:16:25.296Z,10.16
2022-10-11T06:18:57.523Z,10.25
2022-10-11T06:21:25.712Z,10.30
2022-10-11T06:23:59.847Z,10.32
2022-10-11T06:26:29.959Z,10.40
2022-10-11T06:28:58.729Z,10.48
2022-10-11T06:31:27.268Z,10.54
2022-10-11T06:33:55.459Z,10.61
2022-10-11T06:36:23.412Z,10.68
2022-10-11T06:38:55.528Z,10.73
2022-10-11T06:41:26.989Z,10.75
2022-10-11T06:43:55.643Z,10.77
2022-10-11T06:46:26.038Z,10.77
2022-10-11T06:48:56.368Z,10.74
2022-10-11T06:51:25.529Z,10.73
2022-10-11T06:53:56.731Z,10.73
2022-10-11T06:56:26.688Z,10.71
2022-10-11T06:58:55.775Z,10.70
2022-10-11T07:01:24.620Z,10.66
2022-10-11T07:03:54.781Z,10.67
2022-10-11T07:06:25.405Z,10.65
2022-10-11T07:08:54.316Z,10.65
2022-10-11T07:11:25.377Z,10.65
2022-10-11T07:13:56.614Z,10.64
2022-10-11T07:16:25.659Z,10.64
2022-10-11T07:19:00.191Z,10.65
2022-10-11T07:21:30.336Z,10.66
2022-10-11T07:23:58.725Z,10.64
2022-10-11T07:26:28.014Z,10.60
2022-10-11T07:28:56.248Z,10.57
2022-10-11T07:31:26.223Z,10.60
2022-10-11T07:33:54.483Z,10.62
2022-10-11T07:36:24.016Z,10.66
2022-10-11T07:38:52.078Z,10.73
2022-10-11T07:41:20.622Z,10.82
2022-10-11T07:43:49.845Z,10.89
2022-10-11T07:46:18.883Z,10.96
2022-10-11T07:48:46.904Z,11.04
2022-10-11T07:51:17.783Z,11.11
2022-10-11T07:53:48.187Z,11.18
2022-10-11T07:56:19.086Z,11.21
2022-10-11T07:58:55.875Z,11.26
2022-10-11T08:01:25.263Z,11.29
2022-10-11T08:03:53.940Z,11.33
2022-10-11T08:06:26.055Z,11.39
2022-10-11T08:08:54.163Z,11.40
2022-10-11T08:11:34.520Z,11.41
2022-10-11T08:14:06.271Z,11.41
2022-10-11T08:16:36.089Z,11.38
2022-10-11T08:19:04.990Z,11.33
2022-10-11T08:21:33.953Z,11.29
2022-10-11T08:24:03.745Z,11.27
2022-10-11T08:26:32.975Z,11.29
2022-10-11T08:29:05.238Z,11.28
2022-10-11T08:31:34.896Z,11.27
2022-10-11T08:34:02.974Z,11.33
2022-10-11T08:36:31.087Z,11.40
2022-10-11T08:39:01.029Z,11.45
2022-10-11T08:41:32.084Z,11.50
2022-10-11T08:44:18.100Z,11.54
2022-10-11T08:46:56.883Z,11.54
2022-10-11T08:49:31.580Z,11.59
2022-10-11T08:52:04.565Z,11.65
2022-10-11T08:54:35.943Z,11.73
2022-10-11T08:57:06.027Z,11.80
2022-10-11T09:00:08.584Z,11.83
2022-10-11T09:03:16.844Z,11.91
2022-10-11T09:06:07.445Z,12.05
2022-10-11T09:09:02.231Z,12.32
2022-10-11T09:11:42.619Z,12.53
2022-10-11T09:14:16.795Z,12.65
2022-10-11T09:17:03.449Z,12.74
2022-10-11T09:19:48.763Z,12.83
2022-10-11T09:22:30.236Z,12.79
2022-10-11T09:25:34.878Z,12.65
2022-10-11T09:28:06.060Z,12.48
2022-10-11T09:30:36.925Z,12.39
2022-10-11T09:33:20.352Z,12.33
2022-10-11T09:35:53.169Z,12.32
2022-10-11T09:38:50.906Z,12.29
2022-10-11T09:41:27.365Z,12.27
2022-10-11T09:43:55.366Z,12.26
2022-10-11T09:46:37.323Z,12.24
2022-10-11T09:49:12.267Z,12.24
2022-10-11T09:51:45.149Z,12.40
2022-10-11T09:54:13.567Z,12.68
2022-10-11T09:56:46.413Z,12.91
2022-10-11T09:59:28.278Z,13.07
2022-10-11T10:02:18.139Z,13.10
2022-10-11T10:04:56.312Z,13.07
2022-10-11T10:07:25.067Z,12.99
2022-10-11T10:09:53.559Z,13.10
2022-10-11T10:12:29.248Z,13.16
2022-10-11T10:15:08.160Z,13.02
2022-10-11T10:17:36.414Z,12.92
2022-10-11T10:20:06.088Z,12.95
2022-10-11T10:22:35.887Z,13.12
2022-10-11T10:25:08.236Z,13.22
2022-10-11T10:27:36.410Z,13.30
2022-10-11T10:30:10.404Z,13.38
2022-10-11T10:32:48.457Z,13.43
2022-10-11T10:35:40.449Z,13.32
2022-10-11T10:38:13.001Z,13.26
2022-10-11T10:40:48.737Z,13.28
2022-10-11T10:43:20.272Z,13.39
2022-10-11T10:46:10.400Z,13.52
2022-10-11T10:49:34.456Z,13.71
2022-10-11T10:52:16.974Z,13.90
2022-10-11T10:54:54.043Z,14.09
2022-10-11T10:57:46.861Z,14.23
2022-10-11T11:00:22.052Z,14.29
2022-10-11T11:02:50.301Z,14.19
2022-10-11T11:05:37.839Z,14.01
2022-10-11T11:08:27.315Z,13.82
2022-10-11T11:11:33.791Z,13.63
2022-10-11T11:14:20.045Z,13.71
2022-10-11T11:17:09.890Z,13.88
2022-10-11T11:19:42.621Z,14.04
2022-10-11T11:22:13.488Z,14.10
2022-10-11T11:24:44.390Z,14.15
2022-10-11T11:27:30.349Z,14.22
2022-10-11T11:30:01.582Z,14.30
2022-10-11T11:32:45.588Z,14.35
2022-10-11T11:35:38.789Z,14.41
2022-10-11T11:38:16.930Z,14.43
2022-10-11T11:41:02.955Z,14.25
2022-10-11T11:43:50.220Z,14.00
2022-10-11T11:46:24.184Z,13.80
2022-10-11T11:48:56.526Z,13.66
2022-10-11T11:51:31.512Z,13.60
2022-10-11T11:54:45.120Z,13.48
2022-10-11T11:57:15.857Z,13.33
2022-10-11T11:59:43.778Z,13.35
2022-10-11T12:02:56.149Z,13.31
2022-10-11T12:05:28.429Z,13.32
2022-10-11T12:08:06.603Z,13.50
2022-10-11T12:10:36.549Z,13.73
2022-10-11T12:13:19.306Z,13.90
2022-10-11T12:16:13.083Z,14.13
2022-10-11T12:18:50.547Z,14.38
2022-10-11T12:21:18.610Z,14.50
2022-10-11T12:23:55.106Z,14.60
2022-10-11T12:26:29.009Z,14.72
2022-10-11T12:29:28.745Z,14.79
2022-10-11T12:32:00.877Z,14.87
2022-10-11T12:34:35.075Z,14.95
2022-10-11T12:37:18.265Z,14.95
2022-10-11T12:39:49.255Z,14.92
2022-10-11T12:42:32.351Z,14.83
2022-10-11T12:45:15.763Z,14.78
2022-10-11T12:48:19.949Z,14.76
2022-10-11T12:51:17.229Z,14.77
2022-10-11T12:54:14.690Z,14.83
2022-10-11T12:57:33.640Z,14.89
2022-10-11T13:00:23.775Z,14.81
2022-10-11T13:02:52.754Z,14.76
2022-10-11T13:05:28.995Z,14.77
2022-10-11T13:08:02.445Z,14.76
2022-10-11T13:10:44.455Z,14.75
2022-10-11T13:13:27.154Z,14.71
2022-10-11T13:15:59.091Z,14.72
2022-10-11T13:18:27.229Z,14.78
2022-10-11T13:20:56.037Z,14.78
2022-10-11T13:23:30.362Z,14.80
2022-10-11T13:26:01.443Z,14.82
2022-10-11T13:28:35.580Z,14.85
2022-10-11T13:31:05.941Z,14.84
2022-10-11T13:33:38.610Z,14.81
2022-10-11T13:36:14.650Z,14.73
2022-10-11T13:38:58.290Z,14.66
2022-10-11T13:41:29.152Z,14.59
2022-10-11T13:43:59.561Z,14.51
2022-10-11T13:46:29.840Z,14.43
2022-10-11T13:49:24.683Z,14.36
2022-10-11T13:52:01.343Z,14.20
2022-10-11T13:55:05.954Z,14.08
2022-10-11T13:57:38.974Z,14.00
2022-10-11T14:00:16.534Z,13.92
2022-10-11T14:02:54.537Z,13.85
2022-10-11T14:05:33.740Z,13.79
2022-10-11T14:08:08.215Z,13.72
2022-10-11T14:10:36.535Z,13.62
2022-10-11T14:13:06.663Z,13.56
2022-10-11T14:15:38.334Z,13.52
2022-10-11T14:18:41.714Z,13.48
2022-10-11T14:21:29.266Z,13.42
2022-10-11T14:24:10.615Z,13.33
2022-10-11T14:26:42.785Z,13.23
2022-10-11T14:29:25.721Z,13.18
2022-10-11T14:31:59.079Z,13.13
2022-10-11T14:34:27.727Z,13.07
2022-10-11T14:36:55.768Z,13.03
2022-10-11T14:39:25.762Z,13.02
2022-10-11T14:41:54.432Z,13.01
2022-10-11T14:44:22.892Z,12.96
2022-10-11T14:46:54.515Z,12.92
2022-10-11T14:49:28.615Z,12.89
2022-10-11T14:51:58.950Z,12.86
2022-10-11T14:54:29.144Z,12.79
2022-10-11T14:57:00.424Z,12.73
2022-10-11T14:59:36.304Z,12.68
2022-10-11T15:02:06.655Z,12.62
2022-10-11T15:04:35.016Z,12.58
2022-10-11T15:07:04.166Z,12.53
2022-10-11T15:09:32.896Z,12.44
2022-10-11T15:12:01.165Z,12.35
2022-10-11T15:14:29.196Z,12.26
2022-10-11T15:16:57.202Z,12.19
2022-10-11T15:19:25.718Z,12.14
2022-10-11T15:21:53.752Z,12.06
2022-10-11T15:24:21.949Z,11.98
2022-10-11T15:26:50.499Z,11.90
2022-10-11T15:29:18.944Z,11.84
2022-10-11T15:31:47.253Z,11.76
2022-10-11T15:34:15.893Z,11.67
2022-10-11T15:36:44.481Z,11.59
2022-10-11T15:39:23.015Z,11.52
2022-10-11T15:41:51.054Z,11.47
2022-10-11T15:44:19.149Z,11.40
2022-10-11T15:46:47.207Z,11.31
2022-10-11T15:49:15.800Z,11.22
2022-10-11T15:51:44.129Z,11.14
2022-10-11T15:54:12.283Z,11.01
2022-10-11T15:56:40.431Z,10.89
2022-10-11T15:59:10.231Z,10.79
2022-10-11T16:01:38.392Z,10.69
2022-10-11T16:04:06.504Z,10.58
2022-10-11T16:06:34.464Z,10.49
2022-10-11T16:09:02.733Z,10.39
2022-10-11T16:11:30.903Z,10.30
2022-10-11T16:13:58.974Z,10.23
2022-10-11T16:16:27.247Z,10.16
2022-10-11T16:18:55.365Z,10.11
2022-10-11T16:21:24.214Z,10.08
2022-10-11T16:23:52.450Z,10.03
2022-10-11T16:26:20.419Z,9.98
2022-10-11T16:28:48.595Z,9.92
2022-10-11T16:31:20.024Z,9.84
2022-10-11T16:33:48.827Z,9.74
2022-10-11T16:36:51.670Z,9.64
2022-10-11T16:39:20.117Z,9.49
2022-10-11T16:41:48.106Z,9.38
2022-10-11T16:44:19.012Z,9.31
2022-10-11T16:46:50.115Z,9.23
2022-10-11T16:49:22.075Z,9.14
2022-10-11T16:51:51.389Z,9.08
2022-10-11T16:54:20.884Z,9.01
2022-10-11T16:56:51.469Z,8.94
2022-10-11T16:59:21.052Z,8.87
2022-10-11T17:01:49.137Z,8.79
2022-10-11T17:04:17.425Z,8.72
2022-10-11T17:06:45.841Z,8.63
2022-10-11T17:09:15.945Z,8.57
2022-10-11T17:11:44.105Z,8.50
2022-10-11T17:14:13.580Z,8.46
2022-10-11T17:16:41.694Z,8.42
2022-10-11T17:19:15.179Z,8.37
2022-10-11T17:21:43.353Z,8.34
2022-10-11T17:24:11.616Z,8.28
2022-10-11T17:26:39.845Z,8.22
2022-10-11T17:29:07.931Z,8.15
2022-10-11T17:31:38.411Z,8.07
2022-10-11T17:34:06.574Z,7.98
2022-10-11T17:36:34.840Z,7.91
2022-10-11T17:39:09.021Z,7.86
2022-10-11T17:41:37.152Z,7.83
2022-10-11T17:44:05.726Z,7.79
2022-10-11T17:46:34.211Z,7.75
2022-10-11T17:49:04.902Z,7.71
2022-10-11T17:51:34.699Z,7.67
2022-10-11T17:54:03.698Z,7.62
2022-10-11T17:56:36.772Z,7.57
2022-10-11T17:59:07.179Z,7.51
2022-10-11T18:01:36.267Z,7.44
2022-10-11T18:04:06.274Z,7.37
2022-10-11T18:06:39.224Z,7.33
2022-10-11T18:09:07.453Z,7.30
2022-10-11T18:11:35.748Z,7.27
2022-10-11T18:14:05.360Z,7.23
2022-10-11T18:16:34.548Z,7.18
2022-10-11T18:19:05.144Z,7.13
2022-10-11T18:21:35.030Z,7.08
2022-10-11T18:24:06.160Z,7.03
2022-10-11T18:26:34.161Z,6.97
2022-10-11T18:29:02.307Z,6.88
2022-10-11T18:31:33.694Z,6.81
2022-10-11T18:34:03.511Z,6.75
2022-10-11T18:36:32.737Z,6.64
2022-10-11T18:39:03.123Z,6.56
2022-10-11T18:41:33.362Z,6.49
2022-10-11T18:44:04.588Z,6.42
2022-10-11T18:46:33.005Z,6.35
2022-10-11T18:49:02.175Z,6.30
2022-10-11T18:51:35.960Z,6.26
2022-10-11T18:54:05.711Z,6.21
2022-10-11T18:56:36.532Z,6.17
2022-10-11T18:59:07.057Z,6.12
2022-10-11T19:01:40.393Z,6.09
2022-10-11T19:04:11.443Z,6.07
2022-10-11T19:06:43.212Z,6.04
2022-10-11T19:09:14.472Z,6.03
2022-10-11T19:11:42.567Z,6.00
2022-10-11T19:14:14.742Z,5.96
2022-10-11T19:16:46.429Z,5.94
2022-10-11T19:19:14.488Z,5.90
2022-10-11T19:21:42.766Z,5.84
2022-10-11T19:24:11.018Z,5.80
2022-10-11T19:26:41.410Z,5.77
2022-10-11T19:29:14.973Z,5.75
2022-10-11T19:31:46.081Z,5.71
2022-10-11T19:34:14.489Z,5.68
2022-10-11T19:36:43.063Z,5.65
2022-10-11T19:39:16.187Z,5.60
2022-10-11T19:41:45.153Z,5.52
2022-10-11T19:44:14.222Z,5.46
2022-10-11T19:46:52.129Z,5.38
2022-10-11T19:49:25.162Z,5.31
2022-10-11T19:51:55.463Z,5.25
2022-10-11T19:54:24.024Z,5.16
2022-10-11T19:56:52.661Z,5.11
2022-10-11T19:59:20.666Z,5.10
2022-10-11T20:01:52.649Z,5.11
2022-10-11T20:07:10.724Z,5.11
2022-10-11T20:09:38.878Z,5.07
2022-10-11T20:12:07.051Z,5.03
2022-10-11T20:14:35.031Z,4.97
2022-10-11T20:17:03.326Z,4.94
2022-10-11T20:19:31.893Z,4.91
2022-10-11T20:22:00.955Z,4.90
2022-10-11T20:24:33.650Z,4.89
2022-10-11T20:27:04.479Z,4.87
2022-10-11T20:29:32.850Z,4.83
2022-10-11T20:32:01.192Z,4.75
2022-10-11T20:34:29.396Z,4.67
2022-10-11T20:36:57.393Z,4.56
2022-10-11T20:39:25.656Z,4.51
2022-10-11T20:41:53.767Z,4.50
2022-10-11T20:44:21.765Z,4.50
2022-10-11T20:46:50.032Z,4.51
2022-10-11T20:49:20.060Z,4.49
2022-10-11T20:51:48.530Z,4.45
2022-10-11T20:54:17.088Z,4.44
2022-10-11T20:56:45.257Z,4.40
2022-10-11T20:59:13.283Z,4.38
2022-10-11T21:01:42.319Z,4.36
2022-10-11T21:04:18.791Z,4.35
2022-10-11T21:06:48.217Z,4.32
2022-10-11T21:09:17.232Z,4.30
2022-10-11T21:11:45.974Z,4.27
2022-10-11T21:14:14.265Z,4.19
2022-10-11T21:16:42.357Z,4.14
2022-10-11T21:19:13.040Z,4.10
2022-10-11T21:21:41.850Z,4.03
2022-10-11T21:24:10.284Z,3.99
2022-10-11T21:26:38.295Z,3.97
2022-10-11T21:29:06.422Z,3.95
2022-10-11T21:31:34.788Z,3.94
2022-10-11T21:34:05.209Z,3.93
2022-10-11T21:36:37.021Z,3.93
2022-10-11T21:39:05.647Z,3.88
2022-10-11T21:41:34.088Z,3.85
2022-10-11T21:44:02.556Z,3.82
2022-10-11T21:47:01.141Z,3.80
2022-10-11T21:49:20.410Z,3.79
2022-10-11T21:51:49.339Z,3.78
2022-10-11T21:54:17.519Z,3.77
2022-10-11T21:56:45.607Z,3.75
2022-10-11T21:59:13.760Z,3.72
2022-10-11T22:01:43.251Z,3.70
2022-10-11T22:04:11.595Z,3.68
2022-10-11T22:06:40.166Z,3.62
2022-10-11T22:09:08.889Z,3.54
2022-10-11T22:11:37.314Z,3.47
2022-10-11T22:14:05.497Z,3.40
2022-10-11T22:16:34.291Z,3.36
2022-10-11T22:19:02.516Z,3.34
2022-10-11T22:21:31.050Z,3.34
2022-10-11T22:23:59.413Z,3.35
2022-10-11T22:26:30.837Z,3.37
2022-10-11T22:29:00.488Z,3.37
2022-10-11T22:31:30.298Z,3.34
2022-10-11T22:34:00.508Z,3.31
2022-10-11T22:36:33.879Z,3.28
2022-10-11T22:39:07.877Z,3.27
2022-10-11T22:41:39.612Z,3.27
2022-10-11T22:44:07.770Z,3.24
2022-10-11T22:46:35.895Z,3.21
2022-10-11T22:49:04.121Z,3.14
2022-10-11T22:51:32.273Z,3.08
2022-10-11T22:54:00.227Z,3.04
2022-10-11T22:56:28.399Z,3.01
2022-10-11T22:58:56.355Z,2.98
2022-10-11T23:01:24.365Z,2.96
2022-10-11T23:03:52.491Z,2.96
2022-10-11T23:06:20.704Z,2.96
2022-10-11T23:08:49.476Z,2.96
2022-10-11T23:11:18.127Z,2.97
2022-10-11T23:13:46.167Z,2.96
2022-10-11T23:16:14.394Z,2.94
2022-10-11T23:18:42.969Z,2.92
2022-10-11T23:21:11.329Z,2.89
2022-10-11T23:23:40.107Z,2.87
2022-10-11T23:26:12.810Z,2.86
2022-10-11T23:28:42.268Z,2.87
2022-10-11T23:31:18.479Z,2.87
2022-10-11T23:33:47.564Z,2.86
2022-10-11T23:36:21.702Z,2.82
2022-10-11T23:38:51.896Z,2.76
2022-10-11T23:41:21.103Z,2.74
2022-10-11T23:43:49.259Z,2.71
2022-10-11T23:46:17.301Z,2.66
2022-10-11T23:48:45.307Z,2.63
2022-10-11T23:51:14.153Z,2.60
2022-10-11T23:53:42.391Z,2.58
2022-10-11T23:56:11.548Z,2.54
2022-10-11T23:58:39.924Z,2.54
